首页
METAR-TAF:

METAR-TAF

机场 :

长春龙嘉国际机场

长春, 中华人民共和国

纬度: 43-54N, 经度: 125-13E, 海拔: 238米

当前天气观测

该预报发布于51分钟前的20:00 UTC
风速6节,风向
温度 20°C
湿度 88%
气压 1009 hPa
能见度10公里或以上
1500米以下无云,无积雨云

METAR: ZYCC 192000Z 17003MPS CAVOK 20/18 Q1009 NOSIG

时间: 04:51 (20:51 UTC)

预报

该预报发布于7小时和35分钟前的13:16 UTC
预报有效从19日的 18点(UTC)到 20日的 18点(UTC)
风速8节,风向南转西南
能見度: 7000
短暂存在
从 20日的 08点(UTC)到 20日的 14点(UTC)
能見度: 2000
散云层高于2000英尺, 积雨云.
多云层高于3000英尺
雷暴, 雨

TAF: ZYCC 191316Z 1918/2018 20004MPS 7000 NSC TX25/2006Z TN18/1921Z TEMPO 2008/2014 2000 TSRA SCT020CB BKN030

超过4000个机场的气象观测和天气预报(METAR&TAF报告)。

可查询的气象台以黄色和红色小点在地图上表示。

将鼠标移到小点上方,可查看气象台名称。

然后点击查看天气观测和预报。

如需切换地图:点击带黑十字的绿色按钮放大地图;点击带横线的绿色按钮缩小地图;或者点击绿色箭头查看邻近地区的地图。


METAR-TAF: